Time;durP1;ratioP1;P1;durP2;ratioP2;P2;SDS_P1;SDS_P2;PMS_P1;PMS_P2;Temp;Humidity;BMP_temperature;BMP_pressure;BME280_temperature;BME280_humidity;BME280_pressure;Samples;Min_cycle;Max_cycle;Signal;HPM_P1;HPM_P2
2023/08/05 00:02:09;;;;;;;6.47;4.85;;;;;;;;;;7309828;19;140711;-80
2023/08/05 00:04:36;;;;;;;5.50;4.85;;;;;;;;;;7312711;19;141764;-79
2023/08/05 00:07:03;;;;;;;5.97;4.78;;;;;;;;;;7309440;19;140904;-79
2023/08/05 00:09:31;;;;;;;5.82;4.72;;;;;;;;;;7307624;19;140572;-79
2023/08/05 00:11:58;;;;;;;5.55;4.90;;;;;;;;;;7312189;19;140690;-79
2023/08/05 00:14:25;;;;;;;5.78;5.00;;;;;;;;;;7308971;19;140970;-78
2023/08/05 00:16:52;;;;;;;5.75;4.93;;;;;;;;;;7305474;19;141896;-78
2023/08/05 00:19:19;;;;;;;5.80;4.65;;;;;;;;;;7309323;19;140436;-79
2023/08/05 00:21:46;;;;;;;5.10;4.50;;;;;;;;;;7309081;19;140718;-80
2023/08/05 00:24:13;;;;;;;5.43;4.90;;;;;;;;;;7309230;19;140610;-79
2023/08/05 00:26:40;;;;;;;5.60;4.60;;;;;;;;;;7308485;19;142515;-78
2023/08/05 00:29:07;;;;;;;5.25;4.20;;;;;;;;;;7309224;19;140888;-79
2023/08/05 00:31:34;;;;;;;5.25;4.15;;;;;;;;;;7306099;19;140622;-79
2023/08/05 00:34:02;;;;;;;5.63;4.20;;;;;;;;;;7307597;19;140906;-79
2023/08/05 00:36:29;;;;;;;5.25;4.53;;;;;;;;;;7310512;19;142497;-80
2023/08/05 00:38:57;;;;;;;5.22;4.35;;;;;;;;;;7310166;19;140613;-79
2023/08/05 00:41:24;;;;;;;4.88;4.35;;;;;;;;;;7308293;19;140256;-79
2023/08/05 00:43:51;;;;;;;4.60;4.05;;;;;;;;;;7308840;19;140665;-80
2023/08/05 00:46:22;;;;;;;4.25;3.72;;;;;;;;;;7308378;19;142172;-80
2023/08/05 00:48:51;;;;;;;5.03;3.90;;;;;;;;;;7312167;19;140619;-79
2023/08/05 00:51:19;;;;;;;5.40;4.47;;;;;;;;;;7325215;19;140039;-79
2023/08/05 00:53:47;;;;;;;4.78;4.05;;;;;;;;;;7324527;19;141171;-79
2023/08/05 00:56:15;;;;;;;4.50;3.97;;;;;;;;;;7316377;19;142060;-79
2023/08/05 00:58:44;;;;;;;5.10;4.00;;;;;;;;;;7312227;19;140844;-78
2023/08/05 01:01:11;;;;;;;4.20;3.78;;;;;;;;;;7312925;19;140380;-79
2023/08/05 01:03:38;;;;;;;5.28;3.90;;;;;;;;;;7311728;19;140972;-78
2023/08/05 01:06:05;;;;;;;4.72;3.70;;;;;;;;;;7307677;19;142426;-79
2023/08/05 01:08:33;;;;;;;4.07;3.63;;;;;;;;;;7308323;19;140824;-79
2023/08/05 01:11:00;;;;;;;3.92;3.47;;;;;;;;;;7307094;19;140709;-79
2023/08/05 01:13:30;;;;;;;4.40;3.60;;;;;;;;;;7306649;19;141138;-79
2023/08/05 01:15:57;;;;;;;4.38;3.40;;;;;;;;;;7307401;19;140720;-80
2023/08/05 01:18:24;;;;;;;3.80;3.40;;;;;;;;;;7306337;19;140418;-79
2023/08/05 01:20:53;;;;;;;3.72;3.38;;;;;;;;;;7305085;19;140615;-78
2023/08/05 01:23:22;;;;;;;4.88;3.90;;;;;;;;;;7305987;19;140886;-78
2023/08/05 01:25:51;;;;;;;5.43;3.75;;;;;;;;;;7306209;19;141481;-79
2023/08/05 01:28:18;;;;;;;3.95;3.30;;;;;;;;;;7306255;19;140724;-79
2023/08/05 01:30:46;;;;;;;4.38;3.70;;;;;;;;;;7307616;19;140830;-78
2023/08/05 01:33:14;;;;;;;4.55;3.63;;;;;;;;;;7307757;19;140556;-79
2023/08/05 01:35:48;;;;;;;3.88;3.20;;;;;;;;;;7306421;19;140812;-78
2023/08/05 01:38:15;;;;;;;;;;;;;;;;;;7308963;19;140662;-78
2023/08/05 01:40:43;;;;;;;4.63;3.55;;;;;;;;;;7307396;19;140785;-79
2023/08/05 01:43:11;;;;;;;3.60;3.30;;;;;;;;;;7307974;19;140638;-79
2023/08/05 01:45:38;;;;;;;4.07;3.60;;;;;;;;;;7307699;19;142189;-78
2023/08/05 01:48:05;;;;;;;3.55;3.10;;;;;;;;;;7305575;19;140818;-82
2023/08/05 01:50:33;;;;;;;3.80;3.22;;;;;;;;;;7304121;19;140432;-79
2023/08/05 01:53:00;;;;;;;3.40;3.10;;;;;;;;;;7306662;19;140807;-79
2023/08/05 01:55:27;;;;;;;4.00;3.30;;;;;;;;;;7304732;19;142740;-79
2023/08/05 01:57:54;;;;;;;4.00;3.22;;;;;;;;;;7306235;19;140512;-79
2023/08/05 02:00:21;;;;;;;3.35;3.05;;;;;;;;;;7307203;19;140616;-79
2023/08/05 02:02:48;;;;;;;3.53;3.20;;;;;;;;;;7305068;19;140711;-79
2023/08/05 02:05:16;;;;;;;3.25;2.92;;;;;;;;;;7306774;19;142033;-79
2023/08/05 02:07:43;;;;;;;3.15;2.85;;;;;;;;;;7306062;19;140481;-79
2023/08/05 02:10:10;;;;;;;3.20;2.80;;;;;;;;;;7305451;19;140592;-80
2023/08/05 02:12:37;;;;;;;3.33;3.03;;;;;;;;;;7302402;19;141898;-80
2023/08/05 02:15:04;;;;;;;3.30;3.00;;;;;;;;;;7305744;19;140611;-79
2023/08/05 02:17:31;;;;;;;3.08;2.75;;;;;;;;;;7306247;19;140555;-79
2023/08/05 02:19:59;;;;;;;3.13;2.83;;;;;;;;;;7305792;19;140493;-79
2023/08/05 02:22:26;;;;;;;3.00;2.70;;;;;;;;;;7305014;19;141747;-78
2023/08/05 02:24:53;;;;;;;3.42;2.95;;;;;;;;;;7304215;19;141215;-78
2023/08/05 02:27:21;;;;;;;3.03;2.67;;;;;;;;;;7305253;19;140607;-78
2023/08/05 02:29:48;;;;;;;3.20;2.90;;;;;;;;;;7305521;19;140723;-78
2023/08/05 02:32:16;;;;;;;3.35;2.45;;;;;;;;;;7305064;19;141600;-78
2023/08/05 02:34:43;;;;;;;2.60;2.40;;;;;;;;;;7302803;19;140809;-78
2023/08/05 02:37:10;;;;;;;2.65;2.45;;;;;;;;;;7303140;19;140973;-79
2023/08/05 02:39:38;;;;;;;3.00;2.65;;;;;;;;;;7307032;19;140552;-78
2023/08/05 02:42:06;;;;;;;3.03;2.72;;;;;;;;;;7310766;19;141226;-78
2023/08/05 02:44:33;;;;;;;3.33;3.00;;;;;;;;;;7310791;19;141995;-80
2023/08/05 02:47:00;;;;;;;3.90;2.60;;;;;;;;;;7312590;19;140522;-80
2023/08/05 02:49:27;;;;;;;2.85;2.65;;;;;;;;;;7313158;19;140719;-80
2023/08/05 02:51:54;;;;;;;2.78;2.50;;;;;;;;;;7313747;19;141188;-80
2023/08/05 02:54:21;;;;;;;3.05;2.70;;;;;;;;;;7313155;19;141385;-81
2023/08/05 02:56:48;;;;;;;2.72;2.53;;;;;;;;;;7310659;19;140573;-81
2023/08/05 02:59:16;;;;;;;2.50;2.30;;;;;;;;;;7311222;19;140610;-81
2023/08/05 03:01:43;;;;;;;3.10;2.70;;;;;;;;;;7311193;19;141778;-81
2023/08/05 03:04:10;;;;;;;2.47;2.28;;;;;;;;;;7312391;19;142558;-80
2023/08/05 03:06:37;;;;;;;3.00;2.63;;;;;;;;;;7313094;19;140498;-80
2023/08/05 03:09:04;;;;;;;2.33;2.10;;;;;;;;;;7312811;19;140724;-80
2023/08/05 03:11:34;;;;;;;2.97;2.42;;;;;;;;;;7310288;19;141002;-79
2023/08/05 03:14:02;;;;;;;2.92;2.60;;;;;;;;;;7311494;19;141991;-80
2023/08/05 03:16:29;;;;;;;2.70;2.50;;;;;;;;;;7311471;19;140329;-80
2023/08/05 03:18:56;;;;;;;2.30;2.10;;;;;;;;;;7309703;19;140495;-79
2023/08/05 03:21:23;;;;;;;2.50;2.30;;;;;;;;;;7309922;19;141789;-79
2023/08/05 03:23:50;;;;;;;2.78;2.40;;;;;;;;;;7310279;19;140827;-79
2023/08/05 03:26:17;;;;;;;2.75;2.38;;;;;;;;;;7310410;19;140614;-80
2023/08/05 03:28:44;;;;;;;2.53;2.15;;;;;;;;;;7310907;19;140637;-80
2023/08/05 03:31:13;;;;;;;2.30;2.10;;;;;;;;;;7310849;19;141999;-80
2023/08/05 03:33:41;;;;;;;2.72;2.25;;;;;;;;;;7310243;19;142291;-80
2023/08/05 03:36:08;;;;;;;2.47;2.20;;;;;;;;;;7310934;19;140744;-79
2023/08/05 03:38:36;;;;;;;2.08;1.88;;;;;;;;;;7310196;19;140788;-80
2023/08/05 03:41:04;;;;;;;2.35;2.15;;;;;;;;;;7310291;19;141090;-80
2023/08/05 03:43:32;;;;;;;2.42;2.22;;;;;;;;;;7311003;19;141670;-79
2023/08/05 03:45:59;;;;;;;2.33;2.13;;;;;;;;;;7309692;19;140450;-78
2023/08/05 03:48:26;;;;;;;2.22;2.00;;;;;;;;;;7308232;19;140890;-79
2023/08/05 03:50:54;;;;;;;1.95;1.75;;;;;;;;;;7309411;19;141999;-80
2023/08/05 03:53:25;;;;;;;2.30;2.10;;;;;;;;;;7310118;19;141240;-80
2023/08/05 03:55:52;;;;;;;2.10;1.90;;;;;;;;;;7310095;19;140526;-81
2023/08/05 03:58:19;;;;;;;2.47;1.92;;;;;;;;;;7310552;19;140941;-81
2023/08/05 04:00:46;;;;;;;2.15;1.95;;;;;;;;;;7309972;19;140757;-82
2023/08/05 04:03:14;;;;;;;2.13;1.92;;;;;;;;;;7310272;19;142742;-80
2023/08/05 04:05:41;;;;;;;2.00;1.80;;;;;;;;;;7310432;19;140492;-79
2023/08/05 04:08:08;;;;;;;2.33;2.13;;;;;;;;;;7309477;19;140472;-80
2023/08/05 04:10:38;;;;;;;2.25;1.90;;;;;;;;;;7308551;19;140956;-80
2023/08/05 04:13:05;;;;;;;2.05;1.90;;;;;;;;;;7307258;19;140781;-80
2023/08/05 04:15:35;;;;;;;2.38;1.88;;;;;;;;;;7310313;19;141228;-79
2023/08/05 04:18:03;;;;;;;1.70;1.60;;;;;;;;;;7309869;19;140946;-79
2023/08/05 04:20:30;;;;;;;2.10;1.90;;;;;;;;;;7309356;19;140969;-79
2023/08/05 04:22:57;;;;;;;1.90;1.80;;;;;;;;;;7308718;19;140980;-79
2023/08/05 04:25:24;;;;;;;1.95;1.85;;;;;;;;;;7309482;19;140765;-79
2023/08/05 04:27:51;;;;;;;2.20;2.00;;;;;;;;;;7308734;19;140727;-80
2023/08/05 04:30:18;;;;;;;1.98;1.88;;;;;;;;;;7307529;19;141703;-79
2023/08/05 04:32:45;;;;;;;1.80;1.70;;;;;;;;;;7306803;19;140988;-79
2023/08/05 04:35:13;;;;;;;1.80;1.58;;;;;;;;;;7308787;19;140605;-78
2023/08/05 04:37:40;;;;;;;2.85;1.70;;;;;;;;;;7309009;19;140690;-79
2023/08/05 04:40:07;;;;;;;1.70;1.60;;;;;;;;;;7308432;19;141024;-79
2023/08/05 04:42:35;;;;;;;1.73;1.63;;;;;;;;;;7306196;19;141802;-79
2023/08/05 04:45:02;;;;;;;1.90;1.70;;;;;;;;;;7308739;19;140545;-79
2023/08/05 04:47:29;;;;;;;2.05;1.85;;;;;;;;;;7308602;19;140473;-79
2023/08/05 04:49:56;;;;;;;1.73;1.63;;;;;;;;;;7307849;19;140559;-79
2023/08/05 04:52:23;;;;;;;1.75;1.60;;;;;;;;;;7307749;19;142177;-78
2023/08/05 04:54:50;;;;;;;1.80;1.70;;;;;;;;;;7307453;19;140431;-79
2023/08/05 04:57:17;;;;;;;1.63;1.52;;;;;;;;;;7306008;19;141636;-79
2023/08/05 04:59:44;;;;;;;1.92;1.83;;;;;;;;;;7308091;19;141339;-80
2023/08/05 05:02:11;;;;;;;1.70;1.60;;;;;;;;;;7305856;19;142101;-79
2023/08/05 05:04:38;;;;;;;1.70;1.60;;;;;;;;;;7307054;19;140557;-79
2023/08/05 05:07:05;;;;;;;1.70;1.60;;;;;;;;;;7306552;19;140607;-79
2023/08/05 05:09:33;;;;;;;1.63;1.45;;;;;;;;;;7307383;19;141104;-79
2023/08/05 05:12:00;;;;;;;1.70;1.60;;;;;;;;;;7306132;19;141256;-81
2023/08/05 05:14:31;;;;;;;1.70;1.60;;;;;;;;;;7307124;19;140699;-75
2023/08/05 05:16:59;;;;;;;1.85;1.75;;;;;;;;;;7309562;19;140548;-77
2023/08/05 05:19:26;;;;;;;1.70;1.60;;;;;;;;;;7306867;19;141732;-76
2023/08/05 05:21:53;;;;;;;1.80;1.70;;;;;;;;;;7306697;19;141976;-76
2023/08/05 05:24:21;;;;;;;1.70;1.60;;;;;;;;;;7308194;19;140539;-77
2023/08/05 05:26:48;;;;;;;1.40;1.30;;;;;;;;;;7307576;19;140506;-77
2023/08/05 05:29:19;;;;;;;1.48;1.38;;;;;;;;;;7307622;19;141207;-77
2023/08/05 05:31:46;;;;;;;1.45;1.35;;;;;;;;;;7306091;19;140921;-77
2023/08/05 05:34:13;;;;;;;1.60;1.50;;;;;;;;;;7308237;19;140514;-77
2023/08/05 05:36:41;;;;;;;1.45;1.35;;;;;;;;;;7307769;19;140768;-78
2023/08/05 05:39:08;;;;;;;1.30;1.20;;;;;;;;;;7309406;19;141091;-77
2023/08/05 05:41:35;;;;;;;1.50;1.40;;;;;;;;;;7306239;19;142917;-78
2023/08/05 05:44:04;;;;;;;1.35;1.25;;;;;;;;;;7305592;19;140664;-78
2023/08/05 05:46:32;;;;;;;1.75;1.65;;;;;;;;;;7306022;19;140541;-73
2023/08/05 05:48:59;;;;;;;1.35;1.25;;;;;;;;;;7302698;19;141061;-75
2023/08/05 05:51:28;;;;;;;2.30;1.30;;;;;;;;;;7302108;19;142048;-75
2023/08/05 05:53:57;;;;;;;2.80;1.50;;;;;;;;;;7305966;19;140648;-79
2023/08/05 05:56:24;;;;;;;1.50;1.40;;;;;;;;;;7306407;19;140374;-78
2023/08/05 05:58:51;;;;;;;5.95;1.40;;;;;;;;;;7306083;19;141382;-81
2023/08/05 06:01:18;;;;;;;3.15;1.40;;;;;;;;;;7305497;19;142362;-90
2023/08/05 06:03:50;;;;;;;3.95;1.40;;;;;;;;;;7306057;19;140666;-87
2023/08/05 06:06:18;;;;;;;8.40;1.95;;;;;;;;;;7305785;19;140375;-78
2023/08/05 06:08:45;;;;;;;14.10;2.70;;;;;;;;;;7303234;19;140523;-77
2023/08/05 06:11:12;;;;;;;15.80;3.55;;;;;;;;;;7303124;19;143157;-76
2023/08/05 06:13:39;;;;;;;16.00;3.25;;;;;;;;;;7300563;19;140694;-79
2023/08/05 06:16:06;;;;;;;13.60;3.13;;;;;;;;;;7306435;19;140680;-78
2023/08/05 06:18:33;;;;;;;7.40;2.20;;;;;;;;;;7308701;19;141899;-79
2023/08/05 06:21:01;;;;;;;5.68;2.10;;;;;;;;;;7321760;19;141171;-77
2023/08/05 06:23:28;;;;;;;4.95;1.73;;;;;;;;;;7323361;19;140011;-77
2023/08/05 06:25:58;;;;;;;5.57;1.65;;;;;;;;;;7316077;19;140199;-79
2023/08/05 06:28:25;;;;;;;4.13;1.63;;;;;;;;;;7309159;19;140459;-76
2023/08/05 06:30:55;;;;;;;4.80;1.52;;;;;;;;;;7307722;19;142508;-77
2023/08/05 06:33:22;;;;;;;4.97;1.80;;;;;;;;;;7305645;19;140728;-80
2023/08/05 06:35:49;;;;;;;2.75;1.27;;;;;;;;;;7302193;19;140590;-80
2023/08/05 06:38:16;;;;;;;6.78;1.75;;;;;;;;;;7304367;19;140865;-80
2023/08/05 06:40:45;;;;;;;7.15;1.75;;;;;;;;;;7303868;19;142427;-80
2023/08/05 06:43:12;;;;;;;4.55;1.50;;;;;;;;;;7305200;19;140544;-80
2023/08/05 06:45:39;;;;;;;6.60;1.88;;;;;;;;;;7305689;19;140389;-80
2023/08/05 06:48:06;;;;;;;6.45;1.65;;;;;;;;;;7304959;19;141892;-80
2023/08/05 06:50:33;;;;;;;5.32;2.03;;;;;;;;;;7303309;19;142419;-80
2023/08/05 06:53:00;;;;;;;5.32;1.90;;;;;;;;;;7304229;19;140645;-80
2023/08/05 06:55:27;;;;;;;5.55;1.52;;;;;;;;;;7303823;19;140408;-79
2023/08/05 06:58:00;;;;;;;7.63;2.20;;;;;;;;;;7304616;19;140527;-80
2023/08/05 07:00:27;;;;;;;7.80;1.88;;;;;;;;;;7304908;19;142006;-80
2023/08/05 07:02:54;;;;;;;7.05;1.75;;;;;;;;;;7302768;19;140470;-81
2023/08/05 07:05:22;;;;;;;6.07;1.92;;;;;;;;;;7303359;19;140924;-80
2023/08/05 07:07:49;;;;;;;6.30;1.48;;;;;;;;;;7304293;19;140937;-81
2023/08/05 07:10:24;;;;;;;5.00;1.50;;;;;;;;;;7302856;19;143578;-79
2023/08/05 07:12:52;;;;;;;4.82;1.67;;;;;;;;;;7304454;19;140480;-80
2023/08/05 07:15:19;;;;;;;3.80;1.50;;;;;;;;;;7304764;19;140427;-80
2023/08/05 07:17:47;;;;;;;7.03;1.63;;;;;;;;;;7301574;19;141241;-80
2023/08/05 07:20:15;;;;;;;5.40;1.65;;;;;;;;;;7302085;19;140783;-80
2023/08/05 07:22:42;;;;;;;3.97;1.67;;;;;;;;;;7302948;19;140463;-80
2023/08/05 07:25:09;;;;;;;5.20;1.63;;;;;;;;;;7305174;19;140409;-84
2023/08/05 07:27:36;;;;;;;5.22;1.77;;;;;;;;;;7309198;19;141262;-79
2023/08/05 07:30:04;;;;;;;4.97;1.83;;;;;;;;;;7309882;19;142569;-78
2023/08/05 07:32:31;;;;;;;4.72;2.15;;;;;;;;;;7311031;19;140763;-78
2023/08/05 07:34:59;;;;;;;6.10;1.50;;;;;;;;;;7310032;19;140596;-78
2023/08/05 07:37:26;;;;;;;4.65;1.60;;;;;;;;;;7309673;19;141336;-78
2023/08/05 07:39:53;;;;;;;5.90;1.80;;;;;;;;;;7310062;19;142661;-78
2023/08/05 07:42:24;;;;;;;5.88;1.88;;;;;;;;;;7306591;19;140908;-78
2023/08/05 07:44:52;;;;;;;;;;;;;;;;;;7310064;19;140420;-78
2023/08/05 07:47:19;;;;;;;5.95;1.60;;;;;;;;;;7309416;19;140687;-78
2023/08/05 07:49:48;;;;;;;4.00;1.55;;;;;;;;;;7310722;19;141852;-79
2023/08/05 07:52:15;;;;;;;4.70;1.67;;;;;;;;;;7310599;19;140646;-80
2023/08/05 07:54:44;;;;;;;4.97;1.83;;;;;;;;;;7310527;19;140689;-81
2023/08/05 07:57:11;;;;;;;6.07;2.03;;;;;;;;;;7307840;19;141819;-80
2023/08/05 07:59:38;;;;;;;3.60;1.70;;;;;;;;;;7308582;19;141791;-81
2023/08/05 08:02:06;;;;;;;5.35;1.70;;;;;;;;;;7310444;19;140307;-81
2023/08/05 08:04:34;;;;;;;5.65;1.70;;;;;;;;;;7312128;19;140451;-82
2023/08/05 08:07:01;;;;;;;4.05;1.55;;;;;;;;;;7309620;19;140571;-83
2023/08/05 08:09:28;;;;;;;3.22;1.60;;;;;;;;;;7307878;19;141072;-82
2023/08/05 08:11:55;;;;;;;4.00;1.70;;;;;;;;;;7309854;19;140555;-81
2023/08/05 08:14:22;;;;;;;4.18;1.70;;;;;;;;;;7308806;19;140394;-80
2023/08/05 08:16:49;;;;;;;9.23;2.93;;;;;;;;;;7310753;19;142056;-79
2023/08/05 08:19:18;;;;;;;6.10;1.90;;;;;;;;;;7308197;19;140824;-79
2023/08/05 08:21:45;;;;;;;5.80;1.73;;;;;;;;;;7307787;19;140504;-79
2023/08/05 08:24:12;;;;;;;4.97;1.90;;;;;;;;;;7304423;19;140845;-79
2023/08/05 08:26:39;;;;;;;3.55;1.73;;;;;;;;;;7304503;19;141003;-78
2023/08/05 08:29:07;;;;;;;4.97;1.73;;;;;;;;;;7313867;19;141975;-79
2023/08/05 08:31:48;;;;;;;4.07;1.58;;;;;;;;;;7318429;19;140426;-78
2023/08/05 08:34:19;;;;;;;4.63;1.80;;;;;;;;;;7322041;19;140580;-79
2023/08/05 08:36:49;;;;;;;8.05;1.92;;;;;;;;;;7311895;19;141042;-78
2023/08/05 08:39:19;;;;;;;4.35;1.80;;;;;;;;;;7308175;19;141830;-77
2023/08/05 08:41:48;;;;;;;5.35;1.60;;;;;;;;;;7304277;19;140505;-76
2023/08/05 08:44:16;;;;;;;3.92;1.60;;;;;;;;;;7302609;19;140697;-78
2023/08/05 08:46:44;;;;;;;3.28;1.30;;;;;;;;;;7304603;19;142598;-78
2023/08/05 08:49:13;;;;;;;4.43;1.70;;;;;;;;;;7304201;19;141667;-77
2023/08/05 08:51:42;;;;;;;3.63;1.50;;;;;;;;;;7304221;19;140866;-83
2023/08/05 08:54:09;;;;;;;4.60;1.77;;;;;;;;;;7305382;19;140619;-80
2023/08/05 08:56:36;;;;;;;3.70;1.67;;;;;;;;;;7303495;19;141228;-80
2023/08/05 08:59:03;;;;;;;4.68;1.80;;;;;;;;;;7305187;19;142001;-82
2023/08/05 09:01:37;;;;;;;2.22;1.30;;;;;;;;;;7307693;19;140451;-81
2023/08/05 09:04:05;;;;;;;2.30;1.45;;;;;;;;;;7307114;19;140426;-81
2023/08/05 09:06:32;;;;;;;3.53;1.50;;;;;;;;;;7305096;19;140580;-79
2023/08/05 09:08:59;;;;;;;3.15;1.60;;;;;;;;;;7302877;19;142561;-78
2023/08/05 09:11:26;;;;;;;3.03;1.20;;;;;;;;;;7302428;19;140670;-79
2023/08/05 09:13:53;;;;;;;3.47;1.40;;;;;;;;;;7302822;19;140437;-79
2023/08/05 09:16:20;;;;;;;3.30;1.60;;;;;;;;;;7302014;19;141011;-80
2023/08/05 09:18:54;;;;;;;2.95;1.40;;;;;;;;;;7303321;19;142570;-79
2023/08/05 09:21:26;;;;;;;2.63;1.63;;;;;;;;;;7303787;19;140767;-80
2023/08/05 09:23:54;;;;;;;2.42;1.50;;;;;;;;;;7301929;19;140491;-79
2023/08/05 09:26:28;;;;;;;4.00;1.33;;;;;;;;;;7302622;19;140563;-79
2023/08/05 09:28:56;;;;;;;4.30;1.20;;;;;;;;;;7302291;19;142357;-79
2023/08/05 09:31:23;;;;;;;3.53;1.58;;;;;;;;;;7303085;19;140504;-79
2023/08/05 09:33:50;;;;;;;3.75;1.48;;;;;;;;;;7303117;19;141039;-80
2023/08/05 09:36:22;;;;;;;3.85;1.45;;;;;;;;;;7302598;19;141272;-80
2023/08/05 09:39:05;;;;;;;2.72;1.27;;;;;;;;;;7301900;19;141875;-79
2023/08/05 09:41:35;;;;;;;4.32;1.35;;;;;;;;;;7303629;19;140578;-79
2023/08/05 09:44:04;;;;;;;1.38;1.23;;;;;;;;;;7300133;19;140657;-79
2023/08/05 09:46:45;;;;;;;4.22;1.65;;;;;;;;;;7301602;19;140726;-79
2023/08/05 09:49:17;;;;;;;3.65;1.40;;;;;;;;;;7301735;19;141864;-79
2023/08/05 09:51:49;;;;;;;3.22;1.55;;;;;;;;;;7302353;19;140487;-79
2023/08/05 09:54:19;;;;;;;4.53;1.70;;;;;;;;;;7302416;19;140669;-79
2023/08/05 09:56:46;;;;;;;2.78;1.45;;;;;;;;;;7302379;19;140842;-79
2023/08/05 09:59:14;;;;;;;2.70;1.25;;;;;;;;;;7301381;19;140807;-79
2023/08/05 10:01:46;;;;;;;2.22;1.23;;;;;;;;;;7301567;19;140586;-80
2023/08/05 10:04:16;;;;;;;2.97;1.30;;;;;;;;;;7302921;19;140606;-80
2023/08/05 10:06:50;;;;;;;3.22;1.40;;;;;;;;;;7301478;19;140994;-80
2023/08/05 10:09:17;;;;;;;1.98;1.20;;;;;;;;;;7301811;19;141323;-79
2023/08/05 10:11:46;;;;;;;2.83;1.30;;;;;;;;;;7301328;19;140834;-80
2023/08/05 10:14:13;;;;;;;1.63;1.10;;;;;;;;;;7301084;19;140718;-80
2023/08/05 10:16:40;;;;;;;3.22;1.20;;;;;;;;;;7301723;19;141206;-80
2023/08/05 10:19:07;;;;;;;5.53;1.63;;;;;;;;;;7300672;19;141075;-80
2023/08/05 10:21:35;;;;;;;2.40;1.23;;;;;;;;;;7301134;19;140568;-80
2023/08/05 10:24:03;;;;;;;2.33;1.15;;;;;;;;;;7300024;19;140692;-79
2023/08/05 10:26:44;;;;;;;2.92;1.40;;;;;;;;;;7300645;19;142076;-80
2023/08/05 10:29:30;;;;;;;2.15;1.10;;;;;;;;;;7299146;19;141251;-80
2023/08/05 10:32:08;;;;;;;3.17;1.20;;;;;;;;;;7301811;19;140760;-79
2023/08/05 10:34:35;;;;;;;2.35;1.17;;;;;;;;;;7302366;19;140411;-80
2023/08/05 10:37:03;;;;;;;1.90;1.20;;;;;;;;;;7300767;19;142181;-79
2023/08/05 10:39:36;;;;;;;2.08;1.20;;;;;;;;;;7299673;19;142750;-78
2023/08/05 10:42:22;;;;;;;4.28;1.30;;;;;;;;;;7300779;19;140613;-78
2023/08/05 10:44:50;;;;;;;2.85;1.10;;;;;;;;;;7300706;19;141002;-78
2023/08/05 10:47:21;;;;;;;2.75;1.40;;;;;;;;;;7300028;19;141737;-81
2023/08/05 10:49:56;;;;;;;2.10;1.23;;;;;;;;;;7300646;19;142501;-83
2023/08/05 10:52:27;;;;;;;5.15;1.40;;;;;;;;;;7302070;19;140757;-80
2023/08/05 10:54:54;;;;;;;2.63;1.48;;;;;;;;;;7299105;19;140673;-80
2023/08/05 10:57:33;;;;;;;1.65;1.00;;;;;;;;;;7302348;19;140991;-79
2023/08/05 11:00:01;;;;;;;2.97;1.27;;;;;;;;;;7302185;19;142205;-79
2023/08/05 11:02:31;;;;;;;4.35;1.27;;;;;;;;;;7307821;19;140652;-79
2023/08/05 11:05:06;;;;;;;1.25;1.13;;;;;;;;;;7309424;19;140774;-78
2023/08/05 11:07:42;;;;;;;1.95;1.15;;;;;;;;;;7309195;19;141219;-78
2023/08/05 11:10:10;;;;;;;3.42;1.50;;;;;;;;;;7307397;19;142068;-78
2023/08/05 11:12:37;;;;;;;3.33;1.40;;;;;;;;;;7307509;19;140510;-78
2023/08/05 11:15:08;;;;;;;2.55;1.10;;;;;;;;;;7308278;19;140500;-78
2023/08/05 11:17:51;;;;;;;3.15;1.40;;;;;;;;;;7306402;19;141346;-78
2023/08/05 11:20:19;;;;;;;1.63;1.00;;;;;;;;;;7309594;19;140693;-78
2023/08/05 11:22:46;;;;;;;2.70;1.40;;;;;;;;;;7308717;19;140548;-78
2023/08/05 11:25:16;;;;;;;2.08;1.10;;;;;;;;;;7322680;19;140813;-79
2023/08/05 11:27:49;;;;;;;2.40;1.10;;;;;;;;;;7334454;19;140892;-78
2023/08/05 11:30:17;;;;;;;2.15;1.25;;;;;;;;;;7333803;19;142029;-79
2023/08/05 11:32:47;;;;;;;1.92;0.95;;;;;;;;;;7316747;19;140117;-80
2023/08/05 11:35:15;;;;;;;5.28;1.67;;;;;;;;;;7319576;19;140516;-78
2023/08/05 11:37:42;;;;;;;2.45;1.13;;;;;;;;;;7312467;19;142215;-77
2023/08/05 11:40:09;;;;;;;2.25;1.25;;;;;;;;;;7307786;19;142706;-78
2023/08/05 11:42:37;;;;;;;3.30;1.17;;;;;;;;;;7308073;19;140658;-76
2023/08/05 11:45:04;;;;;;;1.52;0.98;;;;;;;;;;7307446;19;140430;-76
2023/08/05 11:47:40;;;;;;;4.28;1.55;;;;;;;;;;7303594;19;142066;-76
2023/08/05 11:50:08;;;;;;;1.73;1.27;;;;;;;;;;7307290;19;140892;-75
2023/08/05 11:52:36;;;;;;;1.92;1.30;;;;;;;;;;7304443;19;140939;-76
2023/08/05 11:55:04;;;;;;;3.45;1.30;;;;;;;;;;7307284;19;140587;-77
2023/08/05 11:57:32;;;;;;;2.03;1.10;;;;;;;;;;7305575;19;140755;-76
2023/08/05 12:00:12;;;;;;;3.35;1.45;;;;;;;;;;7303520;19;141827;-75
2023/08/05 12:02:39;;;;;;;2.85;1.20;;;;;;;;;;7303385;19;140709;-76
2023/08/05 12:05:08;;;;;;;2.40;1.10;;;;;;;;;;7305959;19;140579;-76
2023/08/05 12:07:41;;;;;;;1.80;1.00;;;;;;;;;;7306229;19;140484;-77
2023/08/05 12:10:13;;;;;;;2.30;1.15;;;;;;;;;;7307014;19;140853;-78
2023/08/05 12:13:01;;;;;;;3.08;1.30;;;;;;;;;;7304420;19;141347;-77
2023/08/05 12:15:28;;;;;;;2.53;1.20;;;;;;;;;;7305556;19;140568;-81
2023/08/05 12:17:57;;;;;;;3.63;1.35;;;;;;;;;;7307048;19;141579;-79
2023/08/05 12:26:10;;;;;;;2.45;1.10;;;;;;;;;;7309196;19;140694;-80
2023/08/05 12:28:37;;;;;;;2.50;0.93;;;;;;;;;;7307721;19;140579;-79
2023/08/05 12:31:06;;;;;;;2.60;1.10;;;;;;;;;;7306185;19;141913;-80
2023/08/05 12:33:35;;;;;;;2.40;1.00;;;;;;;;;;7302389;19;140498;-79
2023/08/05 12:36:05;;;;;;;3.65;1.30;;;;;;;;;;7302435;19;140711;-80
2023/08/05 12:38:32;;;;;;;1.60;0.90;;;;;;;;;;7304452;19;141389;-78
2023/08/05 12:40:59;;;;;;;2.88;1.23;;;;;;;;;;7305586;19;141927;-78
2023/08/05 12:43:26;;;;;;;1.88;1.30;;;;;;;;;;7306617;19;140421;-78
2023/08/05 12:45:53;;;;;;;1.40;1.10;;;;;;;;;;7305728;19;140596;-80
2023/08/05 12:48:22;;;;;;;2.67;1.23;;;;;;;;;;7304590;19;141153;-80
2023/08/05 12:50:51;;;;;;;1.88;1.02;;;;;;;;;;7306789;19;141987;-78
2023/08/05 12:53:18;;;;;;;2.47;1.00;;;;;;;;;;7306723;19;140635;-79
2023/08/05 12:55:45;;;;;;;1.70;1.20;;;;;;;;;;7306168;19;140910;-78
2023/08/05 13:01:01;;;;;;;2.30;1.15;;;;;;;;;;7298289;19;140707;-79
2023/08/05 13:03:42;;;;;;;5.20;2.08;;;;;;;;;;7293632;19;140489;31
2023/08/05 13:06:10;;;;;;;3.08;1.50;;;;;;;;;;7306159;19;140644;-79
2023/08/05 13:08:37;;;;;;;2.33;1.30;;;;;;;;;;7305336;19;141266;-80
2023/08/05 13:13:47;;;;;;;2.05;1.15;;;;;;;;;;7304445;19;140529;-79
2023/08/05 13:16:16;;;;;;;2.50;1.20;;;;;;;;;;7303608;19;140595;-79
2023/08/05 13:18:44;;;;;;;2.08;1.13;;;;;;;;;;7304939;19;141114;-79
2023/08/05 13:21:11;;;;;;;3.78;1.30;;;;;;;;;;7303349;19;143037;-79
2023/08/05 13:23:41;;;;;;;2.35;1.25;;;;;;;;;;7303889;19;140915;-78
2023/08/05 13:26:15;;;;;;;2.40;1.30;;;;;;;;;;7304402;19;140543;31
2023/08/05 13:28:42;;;;;;;1.92;1.17;;;;;;;;;;7304042;19;140936;-79
2023/08/05 13:31:09;;;;;;;3.67;1.55;;;;;;;;;;7301628;19;142791;-79
2023/08/05 13:33:37;;;;;;;3.67;1.75;;;;;;;;;;7304425;19;140379;-79
2023/08/05 13:36:04;;;;;;;2.33;1.50;;;;;;;;;;7302337;19;140747;-79
2023/08/05 13:38:31;;;;;;;2.97;1.50;;;;;;;;;;7304016;19;140397;-78
2023/08/05 13:40:59;;;;;;;2.30;1.50;;;;;;;;;;7301800;19;141887;-78
2023/08/05 13:46:14;;;;;;;3.72;1.60;;;;;;;;;;7294745;19;141063;-78
2023/08/05 13:48:41;;;;;;;3.33;1.60;;;;;;;;;;7298612;19;140600;-78
2023/08/05 13:51:10;;;;;;;4.97;2.15;;;;;;;;;;7302659;19;142252;-78
2023/08/05 13:53:38;;;;;;;3.10;1.90;;;;;;;;;;7304665;19;140562;-80
2023/08/05 13:56:05;;;;;;;4.47;2.38;;;;;;;;;;7301537;19;140744;-77
2023/08/05 13:58:32;;;;;;;5.63;1.65;;;;;;;;;;7301154;19;140626;-77
2023/08/05 14:03:49;;;;;;;4.40;2.40;;;;;;;;;;7304097;19;140934;-78
2023/08/05 14:06:17;;;;;;;3.55;2.00;;;;;;;;;;7302702;19;140562;-78
2023/08/05 14:08:44;;;;;;;4.50;2.22;;;;;;;;;;7302314;19;141085;-78
2023/08/05 14:14:03;;;;;;;3.97;2.40;;;;;;;;;;7301846;19;140567;-79
2023/08/05 14:16:30;;;;;;;5.40;2.92;;;;;;;;;;7298874;19;140311;-79
2023/08/05 14:18:59;;;;;;;3.65;2.33;;;;;;;;;;7300272;19;140968;-78
2023/08/05 14:21:51;;;;;;;6.43;2.90;;;;;;;;;;7300321;19;141035;-79
2023/08/05 14:24:32;;;;;;;3.72;2.42;;;;;;;;;;7302099;19;140812;-79
2023/08/05 14:33:59;;;;;;;4.10;2.33;;;;;;;;;;7299977;19;145441;-78
2023/08/05 14:36:27;;;;;;;3.40;2.10;;;;;;;;;;7304500;19;140426;-79
2023/08/05 14:38:53;;;;;;;3.28;2.15;;;;;;;;;;7308059;19;140380;-76
2023/08/05 14:41:21;;;;;;;4.03;2.50;;;;;;;;;;7306440;19;141444;-77
2023/08/05 14:43:48;;;;;;;3.85;2.45;;;;;;;;;;7306877;19;142488;-76
2023/08/05 14:46:15;;;;;;;3.95;2.10;;;;;;;;;;7306317;19;140668;-76
2023/08/05 14:48:42;;;;;;;3.28;2.00;;;;;;;;;;7308090;19;140745;-77
2023/08/05 14:51:16;;;;;;;4.70;2.00;;;;;;;;;;7306597;19;141316;-77
2023/08/05 14:53:44;;;;;;;5.45;2.30;;;;;;;;;;7307320;19;141200;-76
2023/08/05 14:59:15;;;;;;;5.47;2.35;;;;;;;;;;7309287;19;140767;-76
2023/08/05 15:01:43;;;;;;;3.47;2.30;;;;;;;;;;7306315;19;141223;-76
2023/08/05 15:04:10;;;;;;;2.63;1.90;;;;;;;;;;7307474;19;142079;-76
2023/08/05 15:06:37;;;;;;;5.10;2.47;;;;;;;;;;7308248;19;140510;-75
2023/08/05 15:09:05;;;;;;;3.45;2.03;;;;;;;;;;7308392;19;140863;-76